createdAt,value
2019-03-19T00:01:08.449Z,23.20
2019-03-19T00:03:37.505Z,23.30
2019-03-19T00:06:06.557Z,23.30
2019-03-19T00:08:35.609Z,23.30
2019-03-19T00:11:04.662Z,23.30
2019-03-19T00:13:33.710Z,23.30
2019-03-19T00:16:02.764Z,23.30
2019-03-19T00:18:31.813Z,23.30
2019-03-19T00:21:00.885Z,23.40
2019-03-19T00:23:29.965Z,23.40
2019-03-19T00:25:59.016Z,23.40
2019-03-19T00:28:28.066Z,23.40
2019-03-19T00:30:57.144Z,23.40
2019-03-19T00:33:26.190Z,23.40
2019-03-19T00:35:55.259Z,23.50
2019-03-19T00:38:24.309Z,23.50
2019-03-19T00:40:53.372Z,23.50
2019-03-19T00:43:22.410Z,23.50
2019-03-19T00:45:51.472Z,23.50
2019-03-19T00:48:20.518Z,23.50
2019-03-19T00:50:49.577Z,23.50
2019-03-19T00:53:18.656Z,23.50
2019-03-19T00:55:47.673Z,23.50
2019-03-19T00:58:16.635Z,23.50
2019-03-19T01:00:45.660Z,23.60
2019-03-19T01:03:14.632Z,23.60
2019-03-19T01:05:43.668Z,23.50
2019-03-19T01:08:12.734Z,23.60
2019-03-19T01:10:41.742Z,23.60
2019-03-19T01:13:10.818Z,23.60
2019-03-19T01:15:39.881Z,23.60
2019-03-19T01:18:08.919Z,23.60
2019-03-19T01:20:37.943Z,23.60
2019-03-19T01:23:06.984Z,23.60
2019-03-19T01:25:36.021Z,23.60
2019-03-19T01:28:05.045Z,23.60
2019-03-19T01:30:34.085Z,23.60
2019-03-19T01:33:03.045Z,23.60
2019-03-19T01:35:31.936Z,23.50
2019-03-19T01:38:00.884Z,23.60
2019-03-19T01:40:29.986Z,23.50
2019-03-19T01:42:59.085Z,23.60
2019-03-19T01:45:28.152Z,23.60
2019-03-19T01:47:57.197Z,23.60
2019-03-19T01:50:26.282Z,23.60
2019-03-19T01:52:55.320Z,23.60
2019-03-19T01:55:25.606Z,23.60
2019-03-19T01:57:54.906Z,23.60
2019-03-19T02:00:24.039Z,23.50
2019-03-19T02:02:53.089Z,23.60
2019-03-19T02:05:22.168Z,23.60
2019-03-19T02:07:51.218Z,23.60
2019-03-19T02:10:20.287Z,23.60
2019-03-19T02:12:49.402Z,23.60
2019-03-19T02:15:18.973Z,23.60
2019-03-19T02:17:48.016Z,23.50
2019-03-19T02:20:17.070Z,23.60
2019-03-19T02:22:46.141Z,23.50
2019-03-19T02:25:15.277Z,23.60
2019-03-19T02:27:44.345Z,23.60
2019-03-19T02:30:13.431Z,23.60
2019-03-19T02:32:42.501Z,23.50
2019-03-19T02:35:11.554Z,23.50
2019-03-19T02:37:40.628Z,23.50
2019-03-19T02:40:09.791Z,23.50
2019-03-19T02:42:38.890Z,23.50
2019-03-19T02:45:08.398Z,23.50
2019-03-19T02:47:37.438Z,23.50
2019-03-19T02:50:06.997Z,23.50
2019-03-19T02:52:36.028Z,23.50
2019-03-19T02:55:05.613Z,23.50
2019-03-19T02:57:34.664Z,23.50
2019-03-19T03:00:04.397Z,23.50
2019-03-19T03:02:33.450Z,23.50
2019-03-19T03:05:02.513Z,23.50
2019-03-19T03:07:31.625Z,23.50
2019-03-19T03:10:00.724Z,23.50
2019-03-19T03:12:29.823Z,23.50
2019-03-19T03:14:58.875Z,23.50
2019-03-19T03:17:27.947Z,23.50
2019-03-19T03:19:56.997Z,23.50
2019-03-19T03:22:26.086Z,23.50
2019-03-19T03:24:55.134Z,23.50
2019-03-19T03:27:24.226Z,23.50
2019-03-19T03:29:53.379Z,23.50
2019-03-19T03:32:22.438Z,23.50
2019-03-19T03:34:51.532Z,23.50
2019-03-19T03:37:20.633Z,23.50
2019-03-19T03:39:49.715Z,23.50
2019-03-19T03:42:18.773Z,23.50
2019-03-19T03:44:47.838Z,23.50
2019-03-19T03:47:16.890Z,23.50
2019-03-19T03:49:45.955Z,23.50
2019-03-19T03:52:15.059Z,23.50
2019-03-19T03:54:44.096Z,23.50
2019-03-19T03:57:13.116Z,23.50
2019-03-19T03:59:42.158Z,23.50
2019-03-19T04:02:11.180Z,23.50
2019-03-19T04:04:40.145Z,23.50
2019-03-19T04:07:09.192Z,23.50
2019-03-19T04:09:38.282Z,23.50
2019-03-19T04:12:07.330Z,23.50
2019-03-19T04:14:36.317Z,23.50
2019-03-19T04:17:05.373Z,23.50
2019-03-19T04:19:34.418Z,23.50
2019-03-19T04:22:03.467Z,23.50
2019-03-19T04:24:32.513Z,23.50
2019-03-19T04:27:14.850Z,23.50
2019-03-19T04:29:32.297Z,23.50
2019-03-19T04:32:01.330Z,23.50
2019-03-19T04:34:30.293Z,23.50
2019-03-19T04:36:59.328Z,23.40
2019-03-19T04:39:28.291Z,23.40
2019-03-19T04:41:57.353Z,23.40
2019-03-19T04:44:26.397Z,23.40
2019-03-19T04:46:55.465Z,23.40
2019-03-19T04:49:24.598Z,23.40
2019-03-19T04:51:53.662Z,23.40
2019-03-19T04:54:22.799Z,23.40
2019-03-19T04:56:51.869Z,23.40
2019-03-19T04:59:20.917Z,23.40
2019-03-19T05:01:49.976Z,23.40
2019-03-19T05:04:19.031Z,23.40
2019-03-19T05:06:48.052Z,23.40
2019-03-19T05:09:16.997Z,23.40
2019-03-19T05:11:45.945Z,23.40
2019-03-19T05:14:14.971Z,23.40
2019-03-19T05:16:44.037Z,23.40
2019-03-19T05:19:13.088Z,23.40
2019-03-19T05:21:42.183Z,23.40
2019-03-19T05:24:11.237Z,23.40
2019-03-19T05:26:40.281Z,23.40
2019-03-19T05:29:09.341Z,23.40
2019-03-19T05:31:38.392Z,23.30
2019-03-19T05:34:07.454Z,23.40
2019-03-19T05:36:36.497Z,23.30
2019-03-19T05:39:07.549Z,23.40
2019-03-19T05:41:36.598Z,23.40
2019-03-19T05:44:05.665Z,23.40
2019-03-19T05:46:34.698Z,23.30
2019-03-19T05:49:03.745Z,23.30
2019-03-19T05:51:32.789Z,23.30
2019-03-19T05:54:01.866Z,23.30
2019-03-19T05:56:30.820Z,23.30
2019-03-19T05:58:59.776Z,23.30
2019-03-19T06:01:28.787Z,23.30
2019-03-19T06:03:57.748Z,23.30
2019-03-19T06:06:26.760Z,23.30
2019-03-19T06:08:55.809Z,23.30
2019-03-19T06:11:24.874Z,23.30
2019-03-19T06:13:53.938Z,23.30
2019-03-19T06:16:22.993Z,23.30
2019-03-19T06:18:51.944Z,23.30
2019-03-19T06:21:20.972Z,23.30
2019-03-19T06:23:50.046Z,23.30
2019-03-19T06:26:19.098Z,23.30
2019-03-19T06:28:48.162Z,23.30
2019-03-19T06:31:17.197Z,23.30
2019-03-19T06:33:48.127Z,23.30
2019-03-19T06:36:17.052Z,23.30
2019-03-19T06:38:46.011Z,23.30
2019-03-19T06:41:15.016Z,23.30
2019-03-19T06:43:44.069Z,23.20
2019-03-19T06:46:13.138Z,23.30
2019-03-19T06:48:42.211Z,23.20
2019-03-19T06:51:11.255Z,23.20
2019-03-19T06:53:40.313Z,23.20
2019-03-19T06:56:09.367Z,23.20
2019-03-19T06:58:38.316Z,23.20
2019-03-19T07:01:07.347Z,23.20
2019-03-19T07:03:36.378Z,23.20
2019-03-19T07:06:05.433Z,23.20
2019-03-19T07:08:34.477Z,23.20
2019-03-19T07:11:03.438Z,23.20
2019-03-19T07:13:32.499Z,23.20
2019-03-19T07:16:01.560Z,23.20
2019-03-19T07:18:30.611Z,23.20
2019-03-19T07:20:59.639Z,23.20
2019-03-19T07:23:28.692Z,23.20
2019-03-19T07:25:57.761Z,23.20
2019-03-19T07:28:26.836Z,23.20
2019-03-19T07:30:55.717Z,23.20
2019-03-19T07:33:24.769Z,23.20
2019-03-19T07:35:53.744Z,23.20
2019-03-19T07:38:22.692Z,23.20
2019-03-19T07:40:51.639Z,23.20
2019-03-19T07:43:20.537Z,23.20
2019-03-19T07:45:49.564Z,23.20
2019-03-19T07:48:18.661Z,23.10
2019-03-19T07:50:47.714Z,23.10
2019-03-19T07:53:16.603Z,23.10
2019-03-19T07:55:45.682Z,23.10
2019-03-19T07:58:14.748Z,23.10
2019-03-19T08:00:43.809Z,23.10
2019-03-19T08:03:16.425Z,23.10
2019-03-19T08:05:43.620Z,23.10
2019-03-19T08:08:12.499Z,23.10
2019-03-19T08:10:41.454Z,23.10
2019-03-19T08:13:10.522Z,23.10
2019-03-19T08:15:39.558Z,23.10
2019-03-19T08:18:08.685Z,23.10
2019-03-19T08:20:37.798Z,23.20
2019-03-19T08:23:09.017Z,23.20
2019-03-19T08:25:37.637Z,23.20
2019-03-19T08:28:06.690Z,23.20
2019-03-19T08:30:35.805Z,23.20
2019-03-19T08:33:04.844Z,23.20
2019-03-19T08:35:33.900Z,23.20
2019-03-19T08:38:02.957Z,23.20
2019-03-19T08:40:32.030Z,23.20
2019-03-19T08:43:01.081Z,23.20
2019-03-19T08:45:30.125Z,23.20
2019-03-19T08:47:59.180Z,23.20
2019-03-19T08:50:28.224Z,23.20
2019-03-19T08:52:57.293Z,23.20
2019-03-19T08:55:26.316Z,23.20
2019-03-19T08:57:55.301Z,23.20
2019-03-19T09:00:24.324Z,23.20
2019-03-19T09:02:53.401Z,23.20
2019-03-19T09:05:22.464Z,23.10
2019-03-19T09:07:51.590Z,23.20
2019-03-19T09:10:20.650Z,23.10
2019-03-19T09:12:49.706Z,23.20
2019-03-19T09:15:18.741Z,23.20
2019-03-19T09:17:47.791Z,23.10
2019-03-19T09:20:16.893Z,23.10
2019-03-19T09:22:45.962Z,23.10
2019-03-19T09:25:14.989Z,23.10
2019-03-19T09:27:44.247Z,23.10
2019-03-19T09:30:14.747Z,23.10
2019-03-19T09:32:43.789Z,23.10
2019-03-19T09:35:13.054Z,23.10
2019-03-19T09:37:44.927Z,23.10
2019-03-19T09:40:13.831Z,23.10
2019-03-19T09:42:42.890Z,23.10
2019-03-19T09:45:12.452Z,23.10
2019-03-19T09:47:41.477Z,23.10
2019-03-19T09:50:11.667Z,23.10
2019-03-19T09:52:40.704Z,23.00
2019-03-19T09:55:10.699Z,23.10
2019-03-19T09:57:39.750Z,23.10
2019-03-19T10:00:11.624Z,23.10
2019-03-19T10:02:40.681Z,23.10
2019-03-19T10:05:10.015Z,23.10
2019-03-19T10:07:39.065Z,23.10
2019-03-19T10:10:09.132Z,23.10
2019-03-19T10:12:38.202Z,23.10
2019-03-19T10:15:07.941Z,23.10
2019-03-19T10:17:37.019Z,23.10
2019-03-19T10:20:07.482Z,23.10
2019-03-19T10:22:36.575Z,23.10
2019-03-19T10:25:06.669Z,23.10
2019-03-19T10:27:35.789Z,23.10
2019-03-19T10:30:08.565Z,23.10
2019-03-19T10:32:37.620Z,23.10
2019-03-19T10:35:06.914Z,23.10
2019-03-19T10:37:35.961Z,23.10
2019-03-19T10:40:05.557Z,23.10
2019-03-19T10:42:34.632Z,23.10
2019-03-19T10:45:04.768Z,23.10
2019-03-19T10:47:33.838Z,23.10
2019-03-19T10:50:02.895Z,23.10
2019-03-19T10:52:31.837Z,23.10
2019-03-19T10:55:00.902Z,23.10
2019-03-19T10:57:29.932Z,23.10
2019-03-19T11:00:15.209Z,23.10
2019-03-19T11:02:44.366Z,23.10
2019-03-19T11:05:13.706Z,23.10
2019-03-19T11:07:42.864Z,23.10
2019-03-19T11:10:11.928Z,23.10
2019-03-19T11:12:40.957Z,23.10
2019-03-19T11:15:12.328Z,23.10
2019-03-19T11:17:41.386Z,23.10
2019-03-19T11:20:11.950Z,23.10
2019-03-19T11:22:41.009Z,23.10
2019-03-19T11:25:11.618Z,23.10
2019-03-19T11:27:40.652Z,23.10
2019-03-19T11:30:15.924Z,23.10
2019-03-19T11:32:44.940Z,23.10
2019-03-19T11:35:14.261Z,23.10
2019-03-19T11:37:43.293Z,23.10
2019-03-19T11:40:13.274Z,23.10
2019-03-19T11:42:42.393Z,23.10
2019-03-19T11:45:12.184Z,23.10
2019-03-19T11:47:41.257Z,23.10
2019-03-19T11:50:16.118Z,23.10
2019-03-19T11:52:45.185Z,23.10
2019-03-19T11:55:14.458Z,23.20
2019-03-19T11:57:43.581Z,23.20
2019-03-19T12:00:21.981Z,23.20
2019-03-19T12:02:51.054Z,23.20
2019-03-19T12:05:20.086Z,23.20
2019-03-19T12:07:49.124Z,23.20
2019-03-19T12:10:18.173Z,23.20
2019-03-19T12:12:47.221Z,23.20
2019-03-19T12:15:16.326Z,23.20
2019-03-19T12:17:45.378Z,23.30
2019-03-19T12:20:14.534Z,23.30
2019-03-19T12:22:43.613Z,23.30
2019-03-19T12:25:13.081Z,23.30
2019-03-19T12:27:42.190Z,23.30
2019-03-19T12:30:21.635Z,23.40
2019-03-19T12:32:42.923Z,23.40
2019-03-19T12:35:12.070Z,23.40
2019-03-19T12:37:41.109Z,23.40
2019-03-19T12:40:11.741Z,23.40
2019-03-19T12:42:40.809Z,23.50
2019-03-19T12:45:11.677Z,23.50
2019-03-19T12:47:40.721Z,23.50
2019-03-19T12:50:11.487Z,23.60
2019-03-19T12:52:40.517Z,23.60
2019-03-19T12:55:09.783Z,23.60
2019-03-19T12:57:38.831Z,23.60
2019-03-19T13:00:12.636Z,23.60
2019-03-19T13:02:41.738Z,23.70
2019-03-19T13:05:10.813Z,23.60
2019-03-19T13:07:39.918Z,23.60
2019-03-19T13:10:11.023Z,23.60
2019-03-19T13:12:40.061Z,23.60
2019-03-19T13:15:10.115Z,23.60
2019-03-19T13:17:40.177Z,23.50
2019-03-19T13:20:10.254Z,23.50
2019-03-19T13:22:39.308Z,23.50
2019-03-19T13:25:11.832Z,23.50
2019-03-19T13:27:43.424Z,23.50
2019-03-19T13:30:14.493Z,23.50
2019-03-19T13:32:43.566Z,23.50
2019-03-19T13:35:12.730Z,23.50
2019-03-19T13:37:41.865Z,23.50
2019-03-19T13:40:11.950Z,23.50
2019-03-19T13:42:41.041Z,23.50
2019-03-19T13:45:10.510Z,23.50
2019-03-19T13:47:39.562Z,23.40
2019-03-19T13:50:08.657Z,23.40
2019-03-19T13:52:37.706Z,23.40
2019-03-19T13:55:07.503Z,23.40
2019-03-19T13:57:36.439Z,23.40
2019-03-19T14:00:06.922Z,23.40
2019-03-19T14:02:35.982Z,23.40
2019-03-19T14:05:06.216Z,23.40
2019-03-19T14:07:35.270Z,23.40
2019-03-19T14:10:04.943Z,23.40
2019-03-19T14:12:34.784Z,23.40
2019-03-19T14:15:04.165Z,23.40
2019-03-19T14:17:33.213Z,23.40
2019-03-19T14:20:02.276Z,23.40
2019-03-19T14:22:31.329Z,23.40
2019-03-19T14:25:00.414Z,23.30
2019-03-19T14:27:29.465Z,23.30
2019-03-19T14:29:58.526Z,23.30
2019-03-19T14:32:27.577Z,23.30
2019-03-19T14:34:56.644Z,23.30
2019-03-19T14:37:25.692Z,23.30
2019-03-19T14:39:54.724Z,23.30
2019-03-19T14:42:23.785Z,23.30
2019-03-19T14:44:52.841Z,23.30
2019-03-19T14:47:21.918Z,23.30
2019-03-19T14:49:50.975Z,23.30
2019-03-19T14:52:20.030Z,23.30
2019-03-19T14:54:48.981Z,23.30
2019-03-19T14:57:18.041Z,23.30
2019-03-19T14:59:46.995Z,23.30
2019-03-19T15:02:15.983Z,23.30
2019-03-19T15:04:45.032Z,23.30
2019-03-19T15:07:14.076Z,23.30
2019-03-19T15:09:43.114Z,23.30
2019-03-19T15:12:12.185Z,23.30
2019-03-19T15:14:41.238Z,23.30
2019-03-19T15:17:10.271Z,23.30
2019-03-19T15:19:39.334Z,23.30
2019-03-19T15:22:08.363Z,23.30
2019-03-19T15:24:37.219Z,23.30
2019-03-19T15:27:06.277Z,23.30
2019-03-19T15:29:35.167Z,23.30
2019-03-19T15:32:04.192Z,23.30
2019-03-19T15:34:33.237Z,23.30
2019-03-19T15:37:02.274Z,23.30
2019-03-19T15:39:31.344Z,23.30
2019-03-19T15:42:00.393Z,23.30
2019-03-19T15:44:29.453Z,23.30
2019-03-19T15:46:58.506Z,23.30
2019-03-19T15:49:37.578Z,23.30
2019-03-19T15:51:58.345Z,23.30
2019-03-19T15:54:27.418Z,23.40
2019-03-19T15:56:56.536Z,23.40
2019-03-19T15:59:26.256Z,23.40
2019-03-19T16:01:56.342Z,23.40
2019-03-19T16:04:27.789Z,23.30
2019-03-19T16:06:57.594Z,23.30
2019-03-19T16:09:27.453Z,23.30
2019-03-19T16:11:57.327Z,23.30
2019-03-19T16:14:27.218Z,23.30
2019-03-19T16:16:58.169Z,23.30
2019-03-19T16:19:28.473Z,23.40
2019-03-19T16:21:58.225Z,23.40
2019-03-19T16:24:28.080Z,23.50
2019-03-19T16:26:58.361Z,23.50
2019-03-19T16:29:27.437Z,23.50
2019-03-19T16:31:56.502Z,23.50
2019-03-19T16:34:25.562Z,23.50
2019-03-19T16:36:54.637Z,23.50
2019-03-19T16:39:23.689Z,23.50
2019-03-19T16:41:52.760Z,23.40
2019-03-19T16:44:21.793Z,23.40
2019-03-19T16:46:50.768Z,23.50
2019-03-19T16:49:19.841Z,23.50
2019-03-19T16:51:48.948Z,23.50
2019-03-19T16:54:18.024Z,23.50
2019-03-19T16:56:47.061Z,23.50
2019-03-19T16:59:16.105Z,23.50
2019-03-19T17:01:45.149Z,23.60
2019-03-19T17:04:14.176Z,23.50
2019-03-19T17:06:43.237Z,23.50
2019-03-19T17:09:12.364Z,23.50
2019-03-19T17:11:41.427Z,23.40
2019-03-19T17:14:11.365Z,23.40
2019-03-19T17:16:40.456Z,23.40
2019-03-19T17:19:09.522Z,23.40
2019-03-19T17:21:38.582Z,23.30
2019-03-19T17:24:07.635Z,23.30
2019-03-19T17:26:36.688Z,23.30
2019-03-19T17:29:05.757Z,23.30
2019-03-19T17:31:34.691Z,23.30
2019-03-19T17:34:03.713Z,23.30
2019-03-19T17:36:32.769Z,23.20
2019-03-19T17:39:01.825Z,23.20
2019-03-19T17:41:30.889Z,23.20
2019-03-19T17:43:59.917Z,23.20
2019-03-19T17:46:29.068Z,23.20
2019-03-19T17:48:58.164Z,23.20
2019-03-19T17:51:27.226Z,23.20
2019-03-19T17:53:56.281Z,23.20
2019-03-19T17:56:25.361Z,23.10
2019-03-19T17:58:54.402Z,23.10
2019-03-19T18:01:23.524Z,23.10
2019-03-19T18:03:52.573Z,23.10
2019-03-19T18:06:21.637Z,23.10
2019-03-19T18:08:50.710Z,23.10
2019-03-19T18:11:19.777Z,23.10
2019-03-19T18:13:48.844Z,23.10
2019-03-19T18:16:17.900Z,23.10
2019-03-19T18:18:46.971Z,23.10
2019-03-19T18:21:16.057Z,23.10
2019-03-19T18:23:45.189Z,23.10
2019-03-19T18:26:14.349Z,23.00
2019-03-19T18:28:43.436Z,23.00
2019-03-19T18:31:12.496Z,23.00
2019-03-19T18:33:41.549Z,23.00
2019-03-19T18:36:10.637Z,23.00
2019-03-19T18:38:39.745Z,23.00
2019-03-19T18:41:08.853Z,23.00
2019-03-19T18:43:37.920Z,23.00
2019-03-19T18:46:07.030Z,23.00
2019-03-19T18:48:36.090Z,23.00
2019-03-19T18:51:05.137Z,23.00
2019-03-19T18:53:34.213Z,23.00
2019-03-19T18:56:03.271Z,23.00
2019-03-19T18:58:32.334Z,23.00
2019-03-19T19:01:01.424Z,23.00
2019-03-19T19:03:30.501Z,23.00
2019-03-19T19:05:59.551Z,23.00
2019-03-19T19:08:28.563Z,23.00
2019-03-19T19:10:57.515Z,23.00
2019-03-19T19:13:26.565Z,23.00
2019-03-19T19:15:55.648Z,23.00
2019-03-19T19:18:24.693Z,23.00
2019-03-19T19:20:53.760Z,23.00
2019-03-19T19:23:22.813Z,23.00
2019-03-19T19:25:51.903Z,23.00
2019-03-19T19:28:20.910Z,23.00
2019-03-19T19:30:49.953Z,23.00
2019-03-19T19:33:18.897Z,23.00
2019-03-19T19:35:47.961Z,23.00
2019-03-19T19:38:17.028Z,23.00
2019-03-19T19:40:46.085Z,23.00
2019-03-19T19:43:15.049Z,23.00
2019-03-19T19:45:44.117Z,23.00
2019-03-19T19:48:13.182Z,23.00
2019-03-19T19:50:42.258Z,23.00
2019-03-19T19:53:11.314Z,23.00
2019-03-19T19:55:40.374Z,23.00
2019-03-19T19:58:09.415Z,23.00
2019-03-19T20:00:38.467Z,23.00
2019-03-19T20:03:12.144Z,23.00
2019-03-19T20:05:38.273Z,23.00
2019-03-19T20:08:07.317Z,23.00
2019-03-19T20:10:36.336Z,22.90
2019-03-19T20:13:05.620Z,22.90
2019-03-19T20:15:34.676Z,22.90
2019-03-19T20:18:03.827Z,22.90
2019-03-19T20:20:32.889Z,22.90
2019-03-19T20:23:01.954Z,22.90
2019-03-19T20:25:31.003Z,22.90
2019-03-19T20:28:00.101Z,22.90
2019-03-19T20:30:29.184Z,22.90
2019-03-19T20:32:58.245Z,22.90
2019-03-19T20:35:27.309Z,22.90
2019-03-19T20:37:56.363Z,22.90
2019-03-19T20:40:25.446Z,22.90
2019-03-19T20:42:54.942Z,22.90
2019-03-19T20:45:25.171Z,22.90
2019-03-19T20:47:54.277Z,22.90
2019-03-19T20:50:26.382Z,22.90
2019-03-19T20:52:56.581Z,22.90
2019-03-19T20:55:25.718Z,22.90
2019-03-19T20:57:55.857Z,22.90
2019-03-19T21:00:26.172Z,22.90
2019-03-19T21:02:55.293Z,22.90
2019-03-19T21:05:24.357Z,22.90
2019-03-19T21:07:53.383Z,22.90
2019-03-19T21:10:22.532Z,22.80
2019-03-19T21:12:51.417Z,22.80
2019-03-19T21:15:22.136Z,22.80
2019-03-19T21:17:51.197Z,22.80
2019-03-19T21:20:20.341Z,22.80
2019-03-19T21:22:49.489Z,22.80
2019-03-19T21:25:18.751Z,22.80
2019-03-19T21:27:47.789Z,22.80
2019-03-19T21:30:17.044Z,22.80
2019-03-19T21:32:46.110Z,22.80
2019-03-19T21:35:16.546Z,22.80
2019-03-19T21:37:45.609Z,22.80
2019-03-19T21:40:14.745Z,22.80
2019-03-19T21:42:43.798Z,22.80
2019-03-19T21:45:12.948Z,22.80
2019-03-19T21:47:42.092Z,22.80
2019-03-19T21:50:12.569Z,22.80
2019-03-19T21:52:41.640Z,22.80
2019-03-19T21:55:11.016Z,22.80
2019-03-19T21:57:40.065Z,22.80
2019-03-19T22:00:11.889Z,22.80
2019-03-19T22:02:41.057Z,22.80
2019-03-19T22:05:10.129Z,22.80
2019-03-19T22:07:39.173Z,22.80
2019-03-19T22:10:10.934Z,22.90
2019-03-19T22:12:40.105Z,22.90
2019-03-19T22:15:13.357Z,22.90
2019-03-19T22:17:42.394Z,22.90
2019-03-19T22:20:11.860Z,22.90
2019-03-19T22:22:40.896Z,22.90
2019-03-19T22:25:11.671Z,22.90
2019-03-19T22:27:41.868Z,23.00
2019-03-19T22:30:13.992Z,23.00
2019-03-19T22:32:43.989Z,23.00
2019-03-19T22:35:14.372Z,23.00
2019-03-19T22:37:43.469Z,23.00
2019-03-19T22:40:13.482Z,23.00
2019-03-19T22:42:42.553Z,23.10
2019-03-19T22:45:12.764Z,23.10
2019-03-19T22:47:41.823Z,23.10
2019-03-19T22:50:11.472Z,23.10
2019-03-19T22:52:41.581Z,23.10
2019-03-19T22:55:11.711Z,23.10
2019-03-19T22:57:41.931Z,23.10
2019-03-19T23:00:18.806Z,23.10
2019-03-19T23:02:47.905Z,23.20
2019-03-19T23:05:16.959Z,23.20
2019-03-19T23:07:46.099Z,23.20
2019-03-19T23:10:15.154Z,23.20
2019-03-19T23:12:44.210Z,23.20
2019-03-19T23:15:13.310Z,23.20
2019-03-19T23:17:42.370Z,23.30
2019-03-19T23:20:11.893Z,23.30
2019-03-19T23:22:41.127Z,23.30
2019-03-19T23:25:10.297Z,23.30
2019-03-19T23:27:39.350Z,23.30
2019-03-19T23:30:08.705Z,23.30
2019-03-19T23:32:37.779Z,23.40
2019-03-19T23:35:06.874Z,23.40
2019-03-19T23:37:35.924Z,23.40
2019-03-19T23:40:05.657Z,23.40
2019-03-19T23:42:34.718Z,23.40
2019-03-19T23:45:03.942Z,23.40
2019-03-19T23:47:32.994Z,23.40
2019-03-19T23:50:02.058Z,23.50
2019-03-19T23:52:31.112Z,23.50
2019-03-19T23:55:00.181Z,23.50
2019-03-19T23:57:29.323Z,23.50
2019-03-19T23:59:58.372Z,23.50
